Time;durP1;ratioP1;P1;durP2;ratioP2;P2;SDS_P1;SDS_P2;PMS_P1;PMS_P2;Temp;Humidity;BMP_temperature;BMP_pressure;BME280_temperature;BME280_humidity;BME280_pressure;Samples;Min_cycle;Max_cycle;Signal;HPM_P1;HPM_P2
2022/06/08 00:03:39;;;;;;;8.95;7.18;;;;;;;;;;6196822;22;20207;31
2022/06/08 00:11:22;;;;;;;11.57;7.63;;;;;;;;;;6289056;22;20204;31
2022/06/08 00:18:16;;;;;;;11.93;8.35;;;;;;;;;;6227817;22;20221;-66
2022/06/08 00:22:58;;;;;;;10.18;7.55;;;;;;;;;;6292657;22;20507;31
2022/06/08 00:52:38;;;;;;;10.65;8.65;;;;;;;;;;6289708;22;20191;31
2022/06/08 00:59:16;;;;;;;13.38;10.15;;;;;;;;;;6259486;22;20205;31
2022/06/08 01:03:26;;;;;;;14.07;10.10;;;;;;;;;;6322550;22;20553;31
2022/06/08 01:10:14;;;;;;;15.93;11.30;;;;;;;;;;6175899;22;20534;-67
2022/06/08 01:19:34;;;;;;;18.17;11.82;;;;;;;;;;6318962;22;20199;31
2022/06/08 01:33:49;;;;;;;16.98;12.88;;;;;;;;;;6345418;22;20206;31
2022/06/08 01:54:19;;;;;;;18.45;13.32;;;;;;;;;;6180073;22;20198;31
2022/06/08 01:58:38;;;;;;;18.58;13.10;;;;;;;;;;6260001;22;20563;31
2022/06/08 02:08:32;;;;;;;18.23;13.93;;;;;;;;;;6257549;22;20222;-67
2022/06/08 02:22:29;;;;;;;22.45;14.98;;;;;;;;;;6343260;22;21436;31
2022/06/08 02:26:33;;;;;;;22.02;14.90;;;;;;;;;;6205333;22;20512;-67
2022/06/08 02:36:00;;;;;;;19.92;14.30;;;;;;;;;;6286844;22;20203;31
2022/06/08 02:40:23;;;;;;;18.52;13.93;;;;;;;;;;6258710;22;20576;31
2022/06/08 02:49:39;;;;;;;18.55;14.00;;;;;;;;;;6257859;22;20193;31
2022/06/08 02:53:47;;;;;;;19.17;13.95;;;;;;;;;;6169939;22;20514;31
2022/06/08 03:10:18;;;;;;;18.50;14.00;;;;;;;;;;6288786;22;20195;31
2022/06/08 03:16:58;;;;;;;19.23;13.70;;;;;;;;;;6136137;23;20208;31
2022/06/08 03:21:11;;;;;;;19.67;13.35;;;;;;;;;;6291716;22;20756;31
2022/06/08 03:23:38;;;;;;;20.27;13.60;;;;;;;;;;6258605;22;20182;31
2022/06/08 03:27:46;;;;;;;18.60;13.07;;;;;;;;;;5908648;22;20558;-67
2022/06/08 03:30:12;;;;;;;19.88;13.35;;;;;;;;;;5942598;22;20193;31
2022/06/08 03:37:20;;;;;;;16.38;12.65;;;;;;;;;;6268395;22;20201;-66
2022/06/08 03:44:05;;;;;;;15.77;11.68;;;;;;;;;;5792691;23;21648;31
2022/06/08 03:58:26;;;;;;;16.73;11.30;;;;;;;;;;6290850;22;20200;31
2022/06/08 04:02:55;;;;;;;13.98;10.73;;;;;;;;;;6263625;22;20556;31
2022/06/08 04:12:35;;;;;;;13.52;9.98;;;;;;;;;;6157699;23;20207;-65
2022/06/08 04:17:27;;;;;;;11.82;9.52;;;;;;;;;;6169754;22;20723;31
2022/06/08 04:24:24;;;;;;;11.55;9.20;;;;;;;;;;6321349;22;20525;31
2022/06/08 04:31:37;;;;;;;13.30;9.43;;;;;;;;;;6172556;22;20522;31
2022/06/08 04:52:58;;;;;;;13.88;9.73;;;;;;;;;;6261514;22;20564;31
2022/06/08 05:13:57;;;;;;;12.48;8.95;;;;;;;;;;6231486;22;20526;31
2022/06/08 05:24:10;;;;;;;13.38;8.10;;;;;;;;;;6197124;22;20202;31
2022/06/08 05:29:09;;;;;;;8.88;7.45;;;;;;;;;;6177318;22;20577;31
2022/06/08 05:36:27;;;;;;;9.30;6.80;;;;;;;;;;6292590;22;20572;31
2022/06/08 05:38:54;;;;;;;8.30;6.28;;;;;;;;;;6291926;22;20182;31
2022/06/08 05:43:32;;;;;;;7.35;5.93;;;;;;;;;;6210155;22;21910;31
2022/06/08 05:50:42;;;;;;;9.32;5.68;;;;;;;;;;6263955;22;20556;31
2022/06/08 06:03:00;;;;;;;7.50;4.88;;;;;;;;;;6176377;22;20272;-65
2022/06/08 06:12:45;;;;;;;6.00;3.67;;;;;;;;;;6189735;23;20192;-64
2022/06/08 06:15:13;;;;;;;6.90;4.03;;;;;;;;;;6192174;23;20198;-65
2022/06/08 06:17:38;;;;;;;6.32;4.18;;;;;;;;;;6187165;23;20219;-65
2022/06/08 06:20:04;;;;;;;6.60;4.85;;;;;;;;;;6184799;23;20173;31
2022/06/08 06:22:33;;;;;;;6.80;4.90;;;;;;;;;;6188269;22;20189;-66
2022/06/08 06:34:45;;;;;;;6.68;4.43;;;;;;;;;;6188302;22;20460;-64
2022/06/08 06:37:11;;;;;;;5.55;3.97;;;;;;;;;;6145503;22;1027863;-65
2022/06/08 06:39:37;;;;;;;6.60;3.70;;;;;;;;;;6191572;22;20187;-65
2022/06/08 06:42:03;;;;;;;4.75;3.22;;;;;;;;;;6193115;22;20191;-66
2022/06/08 06:46:56;;;;;;;6.60;3.88;;;;;;;;;;6192328;22;20186;-65
2022/06/08 06:49:22;;;;;;;5.47;4.05;;;;;;;;;;6192828;22;20562;-64
2022/06/08 06:51:48;;;;;;;6.40;4.25;;;;;;;;;;6194777;23;20149;-64
2022/06/08 06:54:14;;;;;;;6.65;4.40;;;;;;;;;;6194483;23;20147;-64
2022/06/08 06:56:40;;;;;;;6.90;3.80;;;;;;;;;;6194225;23;20172;-64
2022/06/08 06:59:06;;;;;;;6.70;4.15;;;;;;;;;;6194562;23;20275;-63
2022/06/08 07:01:34;;;;;;;7.57;4.18;;;;;;;;;;6194157;23;20442;-64
2022/06/08 07:04:00;;;;;;;6.88;4.28;;;;;;;;;;6194426;23;20206;-64
2022/06/08 07:06:26;;;;;;;5.93;4.18;;;;;;;;;;6194097;23;20140;-64
2022/06/08 07:08:52;;;;;;;5.82;4.30;;;;;;;;;;6188282;23;20149;-64
2022/06/08 07:11:33;;;;;;;5.72;4.18;;;;;;;;;;6187528;23;20193;-64
2022/06/08 07:14:00;;;;;;;7.30;4.40;;;;;;;;;;6187294;23;20126;-64
2022/06/08 07:16:26;;;;;;;6.03;4.63;;;;;;;;;;6187477;23;20173;-64
2022/06/08 07:18:52;;;;;;;7.32;4.75;;;;;;;;;;6187299;23;20196;-64
2022/06/08 07:21:18;;;;;;;6.70;5.18;;;;;;;;;;6187169;22;20193;-63
2022/06/08 07:23:45;;;;;;;7.75;4.93;;;;;;;;;;6187863;23;20152;-64
2022/06/08 07:26:11;;;;;;;5.50;4.95;;;;;;;;;;6187489;23;20141;-63
2022/06/08 07:28:38;;;;;;;5.00;4.47;;;;;;;;;;6187443;23;20220;-64
2022/06/08 07:31:04;;;;;;;8.27;4.80;;;;;;;;;;6187359;23;20160;-63
2022/06/08 07:33:30;;;;;;;6.72;4.47;;;;;;;;;;6187364;22;20227;-64
2022/06/08 07:35:57;;;;;;;7.28;4.95;;;;;;;;;;6187055;23;20165;-64
2022/06/08 07:38:23;;;;;;;5.80;4.38;;;;;;;;;;6187406;23;20149;-64
2022/06/08 07:40:49;;;;;;;8.57;5.40;;;;;;;;;;6186988;23;20563;-64
2022/06/08 07:43:15;;;;;;;5.63;4.65;;;;;;;;;;6187739;23;20545;-64
2022/06/08 07:45:41;;;;;;;6.28;4.47;;;;;;;;;;6187276;23;20562;-65
2022/06/08 07:50:51;;;;;;;5.80;4.50;;;;;;;;;;6187010;23;20228;-64
2022/06/08 07:53:17;;;;;;;6.53;4.68;;;;;;;;;;6186886;23;20173;-64
2022/06/08 07:55:44;;;;;;;6.00;4.50;;;;;;;;;;6186936;23;20165;-65
2022/06/08 07:58:10;;;;;;;6.28;4.85;;;;;;;;;;6187387;23;20142;-64
2022/06/08 08:00:36;;;;;;;5.70;4.80;;;;;;;;;;6186753;23;20212;-65
2022/06/08 08:03:03;;;;;;;7.90;5.10;;;;;;;;;;6186954;23;20133;-64
2022/06/08 08:05:29;;;;;;;5.70;4.55;;;;;;;;;;6187183;23;20422;-64
2022/06/08 08:07:56;;;;;;;7.32;4.78;;;;;;;;;;6186731;23;20137;-65
2022/06/08 08:10:23;;;;;;;6.40;4.38;;;;;;;;;;6187146;23;20148;-64
2022/06/08 08:12:49;;;;;;;6.15;4.20;;;;;;;;;;6186786;23;20141;-65
2022/06/08 08:15:16;;;;;;;5.68;4.30;;;;;;;;;;6187113;23;20440;-65
2022/06/08 08:17:42;;;;;;;5.50;3.80;;;;;;;;;;6186625;23;20644;-64
2022/06/08 08:20:09;;;;;;;5.93;4.38;;;;;;;;;;6186433;23;20196;-64
2022/06/08 08:22:35;;;;;;;4.95;4.45;;;;;;;;;;6187086;23;20489;-65
2022/06/08 08:25:01;;;;;;;6.90;4.25;;;;;;;;;;6187186;23;20140;-65
2022/06/08 08:27:27;;;;;;;5.03;4.53;;;;;;;;;;6186863;23;20195;-65
2022/06/08 08:29:53;;;;;;;5.38;4.53;;;;;;;;;;6186423;23;20165;-65
2022/06/08 08:32:19;;;;;;;5.32;4.25;;;;;;;;;;6186282;23;20180;-65
2022/06/08 08:34:45;;;;;;;4.65;4.20;;;;;;;;;;6186489;23;20227;-65
2022/06/08 08:37:11;;;;;;;5.93;4.20;;;;;;;;;;6186840;23;20199;-65
2022/06/08 08:39:37;;;;;;;5.88;4.68;;;;;;;;;;6186606;23;20137;-65
2022/06/08 08:42:22;;;;;;;5.75;4.47;;;;;;;;;;6186384;23;20450;-65
2022/06/08 08:44:48;;;;;;;6.18;4.40;;;;;;;;;;6186847;23;20133;-66
2022/06/08 08:47:23;;;;;;;5.22;4.43;;;;;;;;;;6186213;23;20167;-66
2022/06/08 08:49:57;;;;;;;4.75;4.30;;;;;;;;;;6186682;23;20172;-65
2022/06/08 08:52:26;;;;;;;5.82;4.57;;;;;;;;;;6186289;23;20601;-66
2022/06/08 08:54:57;;;;;;;7.35;5.68;;;;;;;;;;6186557;23;20141;-65
2022/06/08 08:57:31;;;;;;;7.18;5.15;;;;;;;;;;6186553;23;20172;-65
2022/06/08 08:59:57;;;;;;;7.50;5.32;;;;;;;;;;6186459;23;20125;-66
2022/06/08 09:05:11;;;;;;;6.00;5.00;;;;;;;;;;6186420;23;20172;-66
2022/06/08 09:07:37;;;;;;;6.00;5.10;;;;;;;;;;6186498;23;20445;-66
2022/06/08 09:10:04;;;;;;;6.80;4.97;;;;;;;;;;6186165;23;20141;-66
2022/06/08 09:12:30;;;;;;;6.28;5.22;;;;;;;;;;6186032;23;20207;-66
2022/06/08 09:14:58;;;;;;;6.07;5.05;;;;;;;;;;6186522;23;20446;-66
2022/06/08 09:17:33;;;;;;;5.55;4.95;;;;;;;;;;6185957;23;20445;-66
2022/06/08 09:20:00;;;;;;;5.72;4.88;;;;;;;;;;6186130;23;20211;-66
2022/06/08 09:22:28;;;;;;;6.13;4.93;;;;;;;;;;6186049;23;20200;-66
2022/06/08 09:24:58;;;;;;;6.90;4.93;;;;;;;;;;6186015;23;20148;-66
2022/06/08 09:27:36;;;;;;;5.68;4.57;;;;;;;;;;6186053;23;20145;-66
2022/06/08 09:30:08;;;;;;;5.45;4.93;;;;;;;;;;6186179;23;20156;-66
2022/06/08 09:32:44;;;;;;;6.35;4.85;;;;;;;;;;6185733;23;20161;-66
2022/06/08 09:35:10;;;;;;;6.38;4.60;;;;;;;;;;6186538;23;20140;-66
2022/06/08 09:37:37;;;;;;;8.85;5.25;;;;;;;;;;6185811;23;20453;-66
2022/06/08 09:40:03;;;;;;;4.85;4.45;;;;;;;;;;6186187;23;20152;-66
2022/06/08 09:42:38;;;;;;;5.28;4.20;;;;;;;;;;6185875;23;20141;-66
2022/06/08 09:45:23;;;;;;;6.03;5.10;;;;;;;;;;6185962;23;20125;-66
2022/06/08 09:53:49;;;;;;;4.65;4.13;;;;;;;;;;6180555;23;20514;-66
2022/06/08 09:56:15;;;;;;;6.45;4.65;;;;;;;;;;6186190;23;20204;-66
2022/06/08 09:59:00;;;;;;;5.63;4.63;;;;;;;;;;6185874;23;20554;-66
2022/06/08 10:01:35;;;;;;;5.72;4.60;;;;;;;;;;6185978;23;20137;-66
2022/06/08 10:04:20;;;;;;;5.05;4.45;;;;;;;;;;6186013;23;20141;-66
2022/06/08 10:06:59;;;;;;;6.88;5.40;;;;;;;;;;6185700;23;20616;-66
2022/06/08 10:09:33;;;;;;;6.07;5.20;;;;;;;;;;6185620;23;20129;-66
2022/06/08 10:12:05;;;;;;;5.70;5.10;;;;;;;;;;6185768;23;20155;-66
2022/06/08 10:14:43;;;;;;;7.88;5.93;;;;;;;;;;6185828;23;20151;-66
2022/06/08 10:17:25;;;;;;;7.07;5.75;;;;;;;;;;6185849;23;20169;-66
2022/06/08 10:19:56;;;;;;;6.07;5.38;;;;;;;;;;6186065;23;20156;-66
2022/06/08 10:22:24;;;;;;;7.53;5.88;;;;;;;;;;6185777;23;20126;-66
2022/06/08 10:24:58;;;;;;;6.43;5.43;;;;;;;;;;6185496;23;20146;-66
2022/06/08 10:27:34;;;;;;;7.07;5.15;;;;;;;;;;6186162;23;20233;-66
2022/06/08 10:30:13;;;;;;;9.07;5.70;;;;;;;;;;6185846;23;20129;-66
2022/06/08 10:32:42;;;;;;;9.65;5.88;;;;;;;;;;6185682;23;20504;-66
2022/06/08 10:35:20;;;;;;;6.75;5.80;;;;;;;;;;6185848;23;20494;-66
2022/06/08 10:37:47;;;;;;;5.45;3.50;;;;;;;;;;6185424;23;20169;-66
2022/06/08 10:40:18;;;;;;;5.15;3.28;;;;;;;;;;6185614;23;20550;-66
2022/06/08 10:42:46;;;;;;;4.72;3.13;;;;;;;;;;6186061;23;20482;-66
2022/06/08 10:45:24;;;;;;;6.43;3.60;;;;;;;;;;6187326;23;20557;-66
2022/06/08 10:47:57;;;;;;;3.88;3.10;;;;;;;;;;6187849;23;20145;-66
2022/06/08 10:50:33;;;;;;;5.63;3.22;;;;;;;;;;6187970;23;20434;-66
2022/06/08 10:56:28;;;;;;;4.90;3.20;;;;;;;;;;6187276;23;20615;-66
2022/06/08 10:59:04;;;;;;;5.50;3.60;;;;;;;;;;6186896;23;20140;-66
2022/06/08 11:01:52;;;;;;;5.07;3.60;;;;;;;;;;6187407;23;20533;-66
2022/06/08 11:04:32;;;;;;;4.50;3.67;;;;;;;;;;6187299;23;20514;-66
2022/06/08 11:07:05;;;;;;;7.38;4.30;;;;;;;;;;6187573;23;20211;-66
2022/06/08 11:09:34;;;;;;;7.65;3.67;;;;;;;;;;6187070;22;20483;-66
2022/06/08 11:12:03;;;;;;;6.50;3.92;;;;;;;;;;6157496;23;20157;-66
2022/06/08 11:14:31;;;;;;;6.63;4.07;;;;;;;;;;6157739;23;20178;-66
2022/06/08 11:17:04;;;;;;;8.10;3.97;;;;;;;;;;6157200;23;20174;-66
2022/06/08 11:19:31;;;;;;;9.48;4.10;;;;;;;;;;6157784;23;20138;-65
2022/06/08 11:21:58;;;;;;;6.45;4.47;;;;;;;;;;6157605;23;20193;-66
2022/06/08 11:24:30;;;;;;;5.45;4.13;;;;;;;;;;6157704;23;20138;-66
2022/06/08 11:26:59;;;;;;;5.30;4.25;;;;;;;;;;6157878;23;20444;-65
2022/06/08 11:29:31;;;;;;;7.93;4.60;;;;;;;;;;6157541;23;20169;-66
2022/06/08 11:31:58;;;;;;;7.07;4.45;;;;;;;;;;6157919;23;20192;-65
2022/06/08 11:34:36;;;;;;;6.38;3.80;;;;;;;;;;6157215;23;20174;-66
2022/06/08 11:37:02;;;;;;;6.13;4.43;;;;;;;;;;6157410;23;20196;-66
2022/06/08 11:39:46;;;;;;;8.68;4.10;;;;;;;;;;6156940;23;20149;-66
2022/06/08 11:42:15;;;;;;;7.88;4.60;;;;;;;;;;6157088;23;20558;-66
2022/06/08 11:44:49;;;;;;;6.97;3.75;;;;;;;;;;6157963;23;20146;-66
2022/06/08 11:47:17;;;;;;;10.68;5.47;;;;;;;;;;6172241;23;20193;-66
2022/06/08 11:49:45;;;;;;;7.93;4.53;;;;;;;;;;6186901;23;20363;-66
2022/06/08 11:52:37;;;;;;;6.35;4.38;;;;;;;;;;6186976;23;20160;-66
2022/06/08 11:55:14;;;;;;;9.48;4.47;;;;;;;;;;6181634;23;20169;-66
2022/06/08 11:57:43;;;;;;;6.15;4.75;;;;;;;;;;6186737;22;20601;-66
2022/06/08 12:00:19;;;;;;;7.97;5.32;;;;;;;;;;6186684;23;20449;-66
2022/06/08 12:02:46;;;;;;;7.65;4.70;;;;;;;;;;6187081;23;20168;-66
2022/06/08 12:05:12;;;;;;;7.22;4.50;;;;;;;;;;6186766;23;20152;-66
2022/06/08 12:07:38;;;;;;;6.82;5.15;;;;;;;;;;6187079;23;20141;-66
2022/06/08 12:10:04;;;;;;;7.32;4.95;;;;;;;;;;6187330;23;20149;-66
2022/06/08 12:12:31;;;;;;;7.60;5.53;;;;;;;;;;6186931;23;20148;-66
2022/06/08 12:14:57;;;;;;;5.95;5.35;;;;;;;;;;6186967;23;20148;-66
2022/06/08 12:17:31;;;;;;;7.82;4.70;;;;;;;;;;6186977;23;20161;-66
2022/06/08 12:19:58;;;;;;;7.20;6.25;;;;;;;;;;6188112;23;20124;-66
2022/06/08 12:22:32;;;;;;;9.00;5.90;;;;;;;;;;6189997;23;20158;-66
2022/06/08 12:25:10;;;;;;;9.15;6.47;;;;;;;;;;6186978;23;20557;-66
2022/06/08 12:27:44;;;;;;;6.75;6.13;;;;;;;;;;6186851;23;20219;-66
2022/06/08 12:30:29;;;;;;;8.10;6.80;;;;;;;;;;6186650;23;20177;-66
2022/06/08 12:33:00;;;;;;;7.28;6.03;;;;;;;;;;6186674;23;20445;-66
2022/06/08 12:35:29;;;;;;;6.65;5.85;;;;;;;;;;6186853;23;20188;-67
2022/06/08 12:38:04;;;;;;;8.80;6.22;;;;;;;;;;6186911;23;20199;-66
2022/06/08 12:40:31;;;;;;;6.85;5.88;;;;;;;;;;6186508;23;20152;-66
2022/06/08 12:43:00;;;;;;;5.82;5.18;;;;;;;;;;6186866;23;20142;-66
2022/06/08 12:45:26;;;;;;;5.95;5.40;;;;;;;;;;6187214;23;20168;-66
2022/06/08 12:47:52;;;;;;;5.72;5.22;;;;;;;;;;6187097;23;20149;-69
2022/06/08 12:50:22;;;;;;;5.95;5.28;;;;;;;;;;6186612;23;20160;-69
2022/06/08 12:52:48;;;;;;;4.93;4.50;;;;;;;;;;6186330;23;20133;-69
2022/06/08 12:55:15;;;;;;;5.20;4.80;;;;;;;;;;6186397;23;20149;-70
2022/06/08 12:57:44;;;;;;;6.30;4.65;;;;;;;;;;6188861;23;20589;-65
2022/06/08 13:00:16;;;;;;;6.20;4.70;;;;;;;;;;6190945;22;20156;-67
2022/06/08 13:02:42;;;;;;;5.05;4.55;;;;;;;;;;6191260;23;20231;-64
2022/06/08 13:05:20;;;;;;;6.35;4.95;;;;;;;;;;6191061;23;20168;-66
2022/06/08 13:07:46;;;;;;;5.25;4.55;;;;;;;;;;6191237;23;20156;-65
2022/06/08 13:10:12;;;;;;;10.20;4.65;;;;;;;;;;6191437;23;20171;-65
2022/06/08 13:12:42;;;;;;;4.85;3.83;;;;;;;;;;6191328;23;20156;-64
2022/06/08 13:15:19;;;;;;;4.88;4.30;;;;;;;;;;6191137;23;20146;-64
2022/06/08 13:17:45;;;;;;;4.10;3.72;;;;;;;;;;6190405;23;20231;-65
2022/06/08 13:20:17;;;;;;;4.25;3.83;;;;;;;;;;6190454;23;20145;-65
2022/06/08 13:22:43;;;;;;;5.18;4.07;;;;;;;;;;6186654;23;20132;-66
2022/06/08 13:25:10;;;;;;;4.60;4.20;;;;;;;;;;6185991;22;20212;-66
2022/06/08 13:27:36;;;;;;;5.15;4.65;;;;;;;;;;6185990;22;20612;-66
2022/06/08 13:30:03;;;;;;;4.45;4.05;;;;;;;;;;6185902;22;20557;-66
2022/06/08 13:32:29;;;;;;;4.63;4.22;;;;;;;;;;6185888;23;20138;-66
2022/06/08 13:34:55;;;;;;;5.38;4.18;;;;;;;;;;6185784;23;20148;-66
2022/06/08 13:37:34;;;;;;;4.43;3.97;;;;;;;;;;6187809;23;20175;-66
2022/06/08 13:40:00;;;;;;;4.70;3.65;;;;;;;;;;6190930;23;20132;-65
2022/06/08 13:42:27;;;;;;;4.22;3.92;;;;;;;;;;6189831;22;20192;-66
2022/06/08 13:44:54;;;;;;;4.43;4.13;;;;;;;;;;6190290;22;20613;-65
2022/06/08 13:47:22;;;;;;;4.63;4.22;;;;;;;;;;6186881;23;20231;-68
2022/06/08 13:49:51;;;;;;;4.63;4.22;;;;;;;;;;6186483;23;20236;-66
2022/06/08 13:52:18;;;;;;;4.93;4.47;;;;;;;;;;6186315;23;20153;-66
2022/06/08 13:54:46;;;;;;;5.25;4.85;;;;;;;;;;6188025;23;20151;-67
2022/06/08 13:57:13;;;;;;;4.30;3.92;;;;;;;;;;6185854;23;20601;-67
2022/06/08 13:59:40;;;;;;;4.95;4.55;;;;;;;;;;6186247;23;20431;-68
2022/06/08 14:02:14;;;;;;;4.63;4.20;;;;;;;;;;6185900;23;20590;-68
2022/06/08 14:04:41;;;;;;;3.85;3.55;;;;;;;;;;6186027;23;20133;-68
2022/06/08 14:13:02;;;;;;;4.32;3.58;;;;;;;;;;6081191;23;20219;-68
2022/06/08 14:15:29;;;;;;;4.82;3.70;;;;;;;;;;6185927;23;20144;-68
2022/06/08 14:17:56;;;;;;;4.25;3.85;;;;;;;;;;6186298;23;20584;-68
2022/06/08 14:20:51;;;;;;;3.88;3.47;;;;;;;;;;6187762;23;20180;-68
2022/06/08 14:23:17;;;;;;;4.05;3.63;;;;;;;;;;6163424;23;20172;-68
2022/06/08 14:25:44;;;;;;;4.90;4.20;;;;;;;;;;6187770;23;20164;-68
2022/06/08 14:28:11;;;;;;;4.28;3.88;;;;;;;;;;6188149;23;20171;-68
2022/06/08 14:30:37;;;;;;;4.57;4.18;;;;;;;;;;6187810;23;20553;-68
2022/06/08 14:33:07;;;;;;;4.97;4.20;;;;;;;;;;6187709;23;20138;-68
2022/06/08 14:35:39;;;;;;;6.50;4.88;;;;;;;;;;6187649;23;20177;-67
2022/06/08 14:38:05;;;;;;;4.45;4.03;;;;;;;;;;6187619;23;20149;-67
2022/06/08 14:40:34;;;;;;;5.63;4.60;;;;;;;;;;6187427;23;20149;-67
2022/06/08 14:43:00;;;;;;;4.93;4.47;;;;;;;;;;6187622;23;20256;-67
2022/06/08 14:45:26;;;;;;;5.13;4.63;;;;;;;;;;6187306;22;20204;-67
2022/06/08 14:47:53;;;;;;;4.88;4.30;;;;;;;;;;6187946;23;20533;-67
2022/06/08 14:50:21;;;;;;;7.68;4.97;;;;;;;;;;6187556;22;20216;-67
2022/06/08 14:52:47;;;;;;;6.32;4.88;;;;;;;;;;6187852;23;20176;-67
2022/06/08 14:58:00;;;;;;;5.10;4.22;;;;;;;;;;6187748;23;20152;-67
2022/06/08 15:00:27;;;;;;;5.63;4.50;;;;;;;;;;6187376;23;20442;-67
2022/06/08 15:02:53;;;;;;;5.40;4.22;;;;;;;;;;6187794;23;20165;-67
2022/06/08 15:05:20;;;;;;;7.50;4.93;;;;;;;;;;6187632;23;20264;-67
2022/06/08 15:07:47;;;;;;;5.95;4.60;;;;;;;;;;6187866;23;20206;-67
2022/06/08 15:10:13;;;;;;;5.93;4.50;;;;;;;;;;6187412;23;20145;-67
2022/06/08 15:12:40;;;;;;;5.97;4.82;;;;;;;;;;6187277;23;20149;-67
2022/06/08 15:15:13;;;;;;;7.63;4.60;;;;;;;;;;6187278;23;20145;-67
2022/06/08 15:17:39;;;;;;;6.70;5.13;;;;;;;;;;6187790;23;20175;-67
2022/06/08 15:20:12;;;;;;;8.23;5.53;;;;;;;;;;6187812;23;20142;-67
2022/06/08 15:22:38;;;;;;;7.97;6.03;;;;;;;;;;6187343;23;20533;-67
2022/06/08 15:25:08;;;;;;;7.70;5.53;;;;;;;;;;6187482;23;20232;-66
2022/06/08 15:27:37;;;;;;;5.88;5.10;;;;;;;;;;6187314;23;20145;-66
2022/06/08 15:30:05;;;;;;;6.45;5.68;;;;;;;;;;6161421;23;20149;-66
2022/06/08 15:32:31;;;;;;;7.03;5.28;;;;;;;;;;6187536;23;20164;-66
2022/06/08 15:34:58;;;;;;;6.68;5.13;;;;;;;;;;6187067;22;20192;-66
2022/06/08 15:37:28;;;;;;;9.15;6.43;;;;;;;;;;6187114;23;20215;-66
2022/06/08 15:39:55;;;;;;;9.52;6.28;;;;;;;;;;6187227;23;20137;-66
2022/06/08 15:42:22;;;;;;;7.32;6.30;;;;;;;;;;6186939;23;20256;-66
2022/06/08 15:44:48;;;;;;;7.85;6.00;;;;;;;;;;6177374;22;20550;31
2022/06/08 15:47:14;;;;;;;11.95;6.95;;;;;;;;;;6182102;22;20192;31
2022/06/08 15:49:41;;;;;;;10.35;6.93;;;;;;;;;;6179870;22;20597;-66
2022/06/08 15:54:23;;;;;;;10.02;8.00;;;;;;;;;;5030809;28;20879;-68
2022/06/08 15:56:50;;;;;;;10.13;8.68;;;;;;;;;;5030601;28;20641;-68
2022/06/08 15:59:19;;;;;;;11.90;9.30;;;;;;;;;;5030806;28;20181;-68
2022/06/08 16:01:45;;;;;;;13.23;10.18;;;;;;;;;;5030775;28;20231;-68
2022/06/08 16:04:12;;;;;;;11.50;9.20;;;;;;;;;;5030702;28;20165;-68
2022/06/08 16:06:40;;;;;;;14.80;10.98;;;;;;;;;;5030896;28;20560;-68
2022/06/08 16:09:07;;;;;;;16.65;11.65;;;;;;;;;;5031030;28;20161;-68
2022/06/08 16:11:33;;;;;;;14.10;11.82;;;;;;;;;;5030807;28;20187;-68
2022/06/08 16:13:59;;;;;;;17.55;12.75;;;;;;;;;;5030361;28;20247;-68
2022/06/08 16:16:26;;;;;;;16.70;12.68;;;;;;;;;;5030388;28;20169;-68
2022/06/08 16:18:52;;;;;;;17.23;12.93;;;;;;;;;;5030422;28;20583;-68
2022/06/08 16:21:17;;;;;;;17.33;12.77;;;;;;;;;;5030593;28;20176;-68
2022/06/08 16:23:43;;;;;;;17.52;12.98;;;;;;;;;;5030399;28;20535;-68
2022/06/08 16:26:10;;;;;;;18.30;12.48;;;;;;;;;;5030622;28;20275;-68
2022/06/08 16:28:36;;;;;;;16.45;13.15;;;;;;;;;;5030283;28;20162;-68
2022/06/08 16:31:02;;;;;;;17.17;13.65;;;;;;;;;;5030768;28;20681;-68
2022/06/08 16:33:28;;;;;;;17.63;13.65;;;;;;;;;;5030231;28;20196;-68
2022/06/08 16:35:56;;;;;;;19.35;14.13;;;;;;;;;;5030531;28;20175;-68
2022/06/08 16:38:22;;;;;;;16.83;13.80;;;;;;;;;;5030133;28;20158;-68
2022/06/08 16:40:48;;;;;;;18.63;14.00;;;;;;;;;;5030459;28;20197;-68
2022/06/08 16:43:18;;;;;;;20.13;14.85;;;;;;;;;;5030360;28;20169;-68
2022/06/08 16:45:44;;;;;;;15.38;12.65;;;;;;;;;;5030334;28;20164;-67
2022/06/08 16:48:13;;;;;;;18.05;12.65;;;;;;;;;;5029915;28;20165;-67
2022/06/08 16:50:40;;;;;;;17.27;12.48;;;;;;;;;;5029913;28;20165;-67
2022/06/08 16:53:06;;;;;;;16.50;13.15;;;;;;;;;;5029771;28;20270;-67
2022/06/08 16:55:33;;;;;;;17.13;12.98;;;;;;;;;;5030127;28;20176;-67
2022/06/08 17:00:44;;;;;;;13.80;11.88;;;;;;;;;;5029815;28;20160;-67
2022/06/08 17:03:11;;;;;;;16.05;12.45;;;;;;;;;;5029605;28;20173;-67
2022/06/08 17:05:36;;;;;;;14.02;11.90;;;;;;;;;;5016251;28;20231;-67
2022/06/08 17:08:03;;;;;;;15.13;10.43;;;;;;;;;;5016469;28;20209;-67
2022/06/08 17:10:29;;;;;;;14.52;10.73;;;;;;;;;;5016379;28;20225;-67
2022/06/08 17:12:55;;;;;;;13.98;10.52;;;;;;;;;;5016458;28;20607;-67
2022/06/08 17:15:21;;;;;;;12.10;9.75;;;;;;;;;;5016163;28;20479;-67
2022/06/08 17:17:48;;;;;;;11.90;9.93;;;;;;;;;;5016065;28;20669;-67
2022/06/08 17:20:14;;;;;;;12.13;9.40;;;;;;;;;;5016180;28;20162;-67
2022/06/08 17:22:40;;;;;;;9.93;8.60;;;;;;;;;;5016065;28;20598;-67
2022/06/08 17:25:09;;;;;;;9.25;8.25;;;;;;;;;;5016409;28;20158;-67
2022/06/08 17:27:35;;;;;;;10.27;8.10;;;;;;;;;;5016327;28;20177;-67
2022/06/08 17:30:01;;;;;;;9.95;8.43;;;;;;;;;;5016219;28;20170;-67
2022/06/08 17:32:27;;;;;;;12.27;8.27;;;;;;;;;;5016047;28;20200;-67
2022/06/08 17:34:53;;;;;;;8.45;7.50;;;;;;;;;;5014961;28;20169;-66
2022/06/08 17:37:19;;;;;;;8.60;7.38;;;;;;;;;;5015942;28;20645;-66
2022/06/08 17:39:46;;;;;;;9.38;7.70;;;;;;;;;;5015783;28;20228;-66
2022/06/08 17:42:21;;;;;;;8.25;7.43;;;;;;;;;;5015967;28;20162;-66
2022/06/08 17:44:48;;;;;;;8.48;7.00;;;;;;;;;;5015760;28;20158;-66
2022/06/08 17:47:14;;;;;;;9.48;7.72;;;;;;;;;;5015826;28;20192;-66
2022/06/08 17:49:41;;;;;;;7.95;7.03;;;;;;;;;;5015784;28;20602;-66
2022/06/08 17:52:07;;;;;;;8.50;6.88;;;;;;;;;;5015558;28;20208;-66
2022/06/08 17:54:33;;;;;;;7.22;6.50;;;;;;;;;;5016081;28;20165;-66
2022/06/08 17:56:59;;;;;;;7.25;6.47;;;;;;;;;;5015680;28;20180;-66
2022/06/08 17:59:25;;;;;;;8.13;6.07;;;;;;;;;;5016586;28;20166;-66
2022/06/08 18:01:52;;;;;;;7.65;5.65;;;;;;;;;;5018705;28;20613;-66
2022/06/08 18:04:18;;;;;;;6.20;5.60;;;;;;;;;;5016022;28;20199;-66
2022/06/08 18:06:44;;;;;;;7.13;5.50;;;;;;;;;;5015551;28;20256;-67
2022/06/08 18:09:10;;;;;;;7.47;5.50;;;;;;;;;;5015454;28;20249;-66
2022/06/08 18:14:21;;;;;;;6.53;5.53;;;;;;;;;;5015358;28;20176;-67
2022/06/08 18:16:47;;;;;;;8.60;6.38;;;;;;;;;;5014246;28;20162;-67
2022/06/08 18:19:13;;;;;;;7.75;5.75;;;;;;;;;;5014923;28;20197;-67
2022/06/08 18:21:39;;;;;;;6.88;6.18;;;;;;;;;;5015031;28;20173;-67
2022/06/08 18:24:05;;;;;;;7.35;6.07;;;;;;;;;;5015855;28;20177;-66
2022/06/08 18:26:31;;;;;;;7.93;5.85;;;;;;;;;;5015130;28;20266;-66
2022/06/08 18:28:57;;;;;;;7.22;6.18;;;;;;;;;;5015192;28;20180;-66
2022/06/08 18:31:23;;;;;;;10.68;6.32;;;;;;;;;;5015075;28;20248;-66
2022/06/08 18:33:49;;;;;;;10.07;6.80;;;;;;;;;;5015342;28;20328;-66
2022/06/08 18:36:15;;;;;;;7.97;6.53;;;;;;;;;;5015585;28;20172;-66
2022/06/08 18:38:41;;;;;;;8.27;6.55;;;;;;;;;;5015099;28;20169;-66
2022/06/08 18:41:11;;;;;;;8.77;6.63;;;;;;;;;;5014859;28;20166;-66
2022/06/08 18:43:37;;;;;;;8.45;6.55;;;;;;;;;;5015329;28;20186;-66
2022/06/08 18:46:04;;;;;;;8.95;6.80;;;;;;;;;;5015312;28;20580;-66
2022/06/08 18:48:30;;;;;;;8.35;6.88;;;;;;;;;;5014619;28;20605;-66
2022/06/08 18:50:56;;;;;;;7.50;6.70;;;;;;;;;;5014572;28;20228;-66
2022/06/08 18:53:22;;;;;;;9.80;7.53;;;;;;;;;;5014454;28;20197;-66
2022/06/08 18:55:48;;;;;;;9.18;6.90;;;;;;;;;;5015028;28;20161;-66
2022/06/08 18:58:15;;;;;;;8.60;6.85;;;;;;;;;;5014719;28;20530;-66
2022/06/08 19:00:42;;;;;;;7.88;6.53;;;;;;;;;;5014656;28;20590;-66
2022/06/08 19:03:08;;;;;;;10.93;7.40;;;;;;;;;;5014625;28;20173;-66
2022/06/08 19:05:35;;;;;;;9.50;6.75;;;;;;;;;;5014488;28;20172;-66
2022/06/08 19:08:01;;;;;;;9.77;7.10;;;;;;;;;;5014167;28;20192;-66
2022/06/08 19:10:27;;;;;;;11.73;7.80;;;;;;;;;;5014300;28;20174;-66
2022/06/08 19:12:53;;;;;;;9.57;6.95;;;;;;;;;;5014311;28;20190;-66
2022/06/08 19:15:21;;;;;;;7.80;6.95;;;;;;;;;;5014409;28;20248;-66
2022/06/08 19:20:42;;;;;;;14.77;8.10;;;;;;;;;;5014772;28;20485;-65
2022/06/08 19:23:16;;;;;;;9.52;7.95;;;;;;;;;;5014702;28;20223;-65
2022/06/08 19:25:42;;;;;;;9.13;7.32;;;;;;;;;;5014339;28;20289;-65
2022/06/08 19:28:08;;;;;;;9.20;7.45;;;;;;;;;;5014462;28;20177;-65
2022/06/08 19:30:58;;;;;;;9.90;7.70;;;;;;;;;;5014517;28;20606;-65
2022/06/08 19:33:23;;;;;;;9.25;7.28;;;;;;;;;;5014164;28;20288;-65
2022/06/08 19:35:50;;;;;;;9.10;7.88;;;;;;;;;;5014356;28;20265;-66
2022/06/08 19:38:16;;;;;;;10.20;8.15;;;;;;;;;;5014183;28;20168;-66
2022/06/08 19:40:42;;;;;;;9.45;7.47;;;;;;;;;;5013942;28;20228;-66
2022/06/08 19:43:09;;;;;;;10.38;8.10;;;;;;;;;;5014307;28;20213;-66
2022/06/08 19:45:35;;;;;;;9.90;7.78;;;;;;;;;;5013773;28;20500;-65
2022/06/08 19:48:01;;;;;;;9.07;8.13;;;;;;;;;;5013883;28;20523;-65
2022/06/08 19:50:29;;;;;;;9.93;7.38;;;;;;;;;;5013831;28;20173;-65
2022/06/08 19:52:55;;;;;;;10.70;7.93;;;;;;;;;;5013934;28;20223;-65
2022/06/08 19:55:23;;;;;;;9.60;7.78;;;;;;;;;;5013948;28;20177;-66
2022/06/08 19:57:48;;;;;;;9.18;7.97;;;;;;;;;;5013910;28;20180;-66
2022/06/08 20:00:15;;;;;;;10.55;8.52;;;;;;;;;;5013799;28;20162;-66